sensor_id;sensor_type;location;lat;lon;timestamp;P1;durP1;ratioP1;P2;durP2;ratioP2
74102;SDS011;62853;46.166;3.640;2023-07-13T00:01:25;6.30;;;2.10;;
74102;SDS011;62853;46.166;3.640;2023-07-13T00:03:50;6.03;;;2.22;;
74102;SDS011;62853;46.166;3.640;2023-07-13T00:06:15;5.90;;;1.88;;
74102;SDS011;62853;46.166;3.640;2023-07-13T00:08:42;7.18;;;1.92;;
74102;SDS011;62853;46.166;3.640;2023-07-13T00:11:08;6.28;;;1.90;;
74102;SDS011;62853;46.166;3.640;2023-07-13T00:13:35;7.30;;;2.35;;
74102;SDS011;62853;46.166;3.640;2023-07-13T00:16:03;6.72;;;2.40;;
74102;SDS011;62853;46.166;3.640;2023-07-13T00:18:28;6.93;;;2.20;;
74102;SDS011;62853;46.166;3.640;2023-07-13T00:20:55;5.97;;;2.20;;
74102;SDS011;62853;46.166;3.640;2023-07-13T00:23:22;10.45;;;2.40;;
74102;SDS011;62853;46.166;3.640;2023-07-13T00:25:48;6.90;;;2.33;;
74102;SDS011;62853;46.166;3.640;2023-07-13T00:28:15;6.95;;;2.10;;
74102;SDS011;62853;46.166;3.640;2023-07-13T00:30:41;11.48;;;2.30;;
74102;SDS011;62853;46.166;3.640;2023-07-13T00:33:06;6.45;;;2.47;;
74102;SDS011;62853;46.166;3.640;2023-07-13T00:35:34;6.55;;;2.53;;
74102;SDS011;62853;46.166;3.640;2023-07-13T00:37:59;4.85;;;2.25;;
74102;SDS011;62853;46.166;3.640;2023-07-13T00:40:25;7.55;;;2.70;;
74102;SDS011;62853;46.166;3.640;2023-07-13T00:42:51;4.75;;;2.30;;
74102;SDS011;62853;46.166;3.640;2023-07-13T00:47:43;7.78;;;2.47;;
74102;SDS011;62853;46.166;3.640;2023-07-13T00:50:10;7.90;;;2.55;;
74102;SDS011;62853;46.166;3.640;2023-07-13T00:52:37;5.38;;;2.10;;
74102;SDS011;62853;46.166;3.640;2023-07-13T00:55:08;7.78;;;2.50;;
74102;SDS011;62853;46.166;3.640;2023-07-13T00:57:36;6.93;;;2.17;;
74102;SDS011;62853;46.166;3.640;2023-07-13T01:00:02;8.52;;;2.72;;
74102;SDS011;62853;46.166;3.640;2023-07-13T01:02:31;6.50;;;2.08;;
74102;SDS011;62853;46.166;3.640;2023-07-13T01:04:58;7.05;;;2.20;;
74102;SDS011;62853;46.166;3.640;2023-07-13T01:07:23;6.65;;;2.40;;
74102;SDS011;62853;46.166;3.640;2023-07-13T01:09:49;8.55;;;2.60;;
74102;SDS011;62853;46.166;3.640;2023-07-13T01:12:15;8.13;;;2.60;;
74102;SDS011;62853;46.166;3.640;2023-07-13T01:14:40;6.57;;;2.47;;
74102;SDS011;62853;46.166;3.640;2023-07-13T01:17:08;10.77;;;2.72;;
74102;SDS011;62853;46.166;3.640;2023-07-13T01:19:36;7.75;;;2.72;;
74102;SDS011;62853;46.166;3.640;2023-07-13T01:22:08;8.50;;;2.60;;
74102;SDS011;62853;46.166;3.640;2023-07-13T01:24:39;7.70;;;2.80;;
74102;SDS011;62853;46.166;3.640;2023-07-13T01:27:08;8.90;;;2.53;;
74102;SDS011;62853;46.166;3.640;2023-07-13T01:29:35;7.65;;;2.67;;
74102;SDS011;62853;46.166;3.640;2023-07-13T01:32:11;8.02;;;2.85;;
74102;SDS011;62853;46.166;3.640;2023-07-13T01:34:39;5.00;;;2.47;;
74102;SDS011;62853;46.166;3.640;2023-07-13T01:37:07;6.30;;;2.33;;
74102;SDS011;62853;46.166;3.640;2023-07-13T01:39:33;6.93;;;2.75;;
74102;SDS011;62853;46.166;3.640;2023-07-13T01:41:58;6.10;;;2.55;;
74102;SDS011;62853;46.166;3.640;2023-07-13T01:44:24;7.22;;;2.75;;
74102;SDS011;62853;46.166;3.640;2023-07-13T01:46:49;10.55;;;2.80;;
74102;SDS011;62853;46.166;3.640;2023-07-13T01:49:15;6.45;;;2.67;;
74102;SDS011;62853;46.166;3.640;2023-07-13T01:51:40;8.55;;;2.80;;
74102;SDS011;62853;46.166;3.640;2023-07-13T01:54:05;7.40;;;2.53;;
74102;SDS011;62853;46.166;3.640;2023-07-13T01:56:31;7.40;;;2.67;;
74102;SDS011;62853;46.166;3.640;2023-07-13T01:58:56;9.20;;;2.90;;
74102;SDS011;62853;46.166;3.640;2023-07-13T02:01:22;8.73;;;2.83;;
74102;SDS011;62853;46.166;3.640;2023-07-13T02:03:47;6.80;;;2.40;;
74102;SDS011;62853;46.166;3.640;2023-07-13T02:06:12;7.28;;;2.80;;
74102;SDS011;62853;46.166;3.640;2023-07-13T02:08:38;5.65;;;2.50;;
74102;SDS011;62853;46.166;3.640;2023-07-13T02:11:03;7.63;;;2.50;;
74102;SDS011;62853;46.166;3.640;2023-07-13T02:13:29;9.02;;;2.67;;
74102;SDS011;62853;46.166;3.640;2023-07-13T02:15:54;5.95;;;2.60;;
74102;SDS011;62853;46.166;3.640;2023-07-13T02:18:19;7.18;;;2.67;;
74102;SDS011;62853;46.166;3.640;2023-07-13T02:20:45;7.25;;;2.70;;
74102;SDS011;62853;46.166;3.640;2023-07-13T02:23:10;7.32;;;2.58;;
74102;SDS011;62853;46.166;3.640;2023-07-13T02:25:36;6.88;;;2.65;;
74102;SDS011;62853;46.166;3.640;2023-07-13T02:28:02;8.02;;;2.80;;
74102;SDS011;62853;46.166;3.640;2023-07-13T02:30:28;7.00;;;2.72;;
74102;SDS011;62853;46.166;3.640;2023-07-13T02:32:55;7.25;;;2.78;;
74102;SDS011;62853;46.166;3.640;2023-07-13T02:35:21;8.20;;;2.72;;
74102;SDS011;62853;46.166;3.640;2023-07-13T02:37:47;7.43;;;2.70;;
74102;SDS011;62853;46.166;3.640;2023-07-13T02:40:12;7.03;;;2.88;;
74102;SDS011;62853;46.166;3.640;2023-07-13T02:42:38;7.65;;;2.80;;
74102;SDS011;62853;46.166;3.640;2023-07-13T02:45:03;7.38;;;2.72;;
74102;SDS011;62853;46.166;3.640;2023-07-13T02:47:31;9.10;;;3.28;;
74102;SDS011;62853;46.166;3.640;2023-07-13T02:49:57;9.95;;;3.22;;
74102;SDS011;62853;46.166;3.640;2023-07-13T02:52:22;9.45;;;3.00;;
74102;SDS011;62853;46.166;3.640;2023-07-13T02:54:48;10.85;;;2.75;;
74102;SDS011;62853;46.166;3.640;2023-07-13T02:57:13;9.27;;;3.35;;
74102;SDS011;62853;46.166;3.640;2023-07-13T02:59:39;9.82;;;3.15;;
74102;SDS011;62853;46.166;3.640;2023-07-13T03:02:04;7.32;;;3.00;;
74102;SDS011;62853;46.166;3.640;2023-07-13T03:04:29;10.43;;;3.10;;
74102;SDS011;62853;46.166;3.640;2023-07-13T03:06:55;10.00;;;3.30;;
74102;SDS011;62853;46.166;3.640;2023-07-13T03:09:23;9.60;;;2.90;;
74102;SDS011;62853;46.166;3.640;2023-07-13T03:11:49;7.50;;;3.35;;
74102;SDS011;62853;46.166;3.640;2023-07-13T03:14:17;6.88;;;3.13;;
74102;SDS011;62853;46.166;3.640;2023-07-13T03:16:42;9.18;;;3.30;;
74102;SDS011;62853;46.166;3.640;2023-07-13T03:19:07;10.05;;;3.30;;
74102;SDS011;62853;46.166;3.640;2023-07-13T03:21:33;8.18;;;3.20;;
74102;SDS011;62853;46.166;3.640;2023-07-13T03:23:58;10.32;;;3.00;;
74102;SDS011;62853;46.166;3.640;2023-07-13T03:26:23;7.85;;;3.28;;
74102;SDS011;62853;46.166;3.640;2023-07-13T03:28:49;7.90;;;3.03;;
74102;SDS011;62853;46.166;3.640;2023-07-13T03:31:16;8.50;;;3.10;;
74102;SDS011;62853;46.166;3.640;2023-07-13T03:33:43;10.68;;;2.90;;
74102;SDS011;62853;46.166;3.640;2023-07-13T03:36:12;7.10;;;3.22;;
74102;SDS011;62853;46.166;3.640;2023-07-13T03:38:49;7.75;;;3.45;;
74102;SDS011;62853;46.166;3.640;2023-07-13T03:41:16;7.28;;;3.20;;
74102;SDS011;62853;46.166;3.640;2023-07-13T03:43:42;8.13;;;3.30;;
74102;SDS011;62853;46.166;3.640;2023-07-13T03:46:08;9.18;;;3.70;;
74102;SDS011;62853;46.166;3.640;2023-07-13T03:48:33;6.78;;;3.15;;
74102;SDS011;62853;46.166;3.640;2023-07-13T03:50:59;8.48;;;3.47;;
74102;SDS011;62853;46.166;3.640;2023-07-13T03:53:25;8.18;;;3.22;;
74102;SDS011;62853;46.166;3.640;2023-07-13T03:55:50;6.93;;;2.90;;
74102;SDS011;62853;46.166;3.640;2023-07-13T04:00:52;11.13;;;3.97;;
74102;SDS011;62853;46.166;3.640;2023-07-13T04:03:18;8.27;;;3.67;;
74102;SDS011;62853;46.166;3.640;2023-07-13T04:05:44;9.23;;;4.00;;
74102;SDS011;62853;46.166;3.640;2023-07-13T04:08:09;10.02;;;3.50;;
74102;SDS011;62853;46.166;3.640;2023-07-13T04:10:35;10.55;;;3.97;;
74102;SDS011;62853;46.166;3.640;2023-07-13T04:13:00;12.50;;;4.45;;
74102;SDS011;62853;46.166;3.640;2023-07-13T04:15:27;11.25;;;4.32;;
74102;SDS011;62853;46.166;3.640;2023-07-13T04:17:55;14.20;;;4.80;;
74102;SDS011;62853;46.166;3.640;2023-07-13T04:20:20;14.63;;;5.03;;
74102;SDS011;62853;46.166;3.640;2023-07-13T04:22:46;9.70;;;4.55;;
74102;SDS011;62853;46.166;3.640;2023-07-13T04:25:12;12.35;;;4.85;;
74102;SDS011;62853;46.166;3.640;2023-07-13T04:27:37;15.30;;;5.22;;
74102;SDS011;62853;46.166;3.640;2023-07-13T04:30:04;11.98;;;5.35;;
74102;SDS011;62853;46.166;3.640;2023-07-13T04:32:33;14.18;;;5.43;;
74102;SDS011;62853;46.166;3.640;2023-07-13T04:34:59;17.75;;;6.03;;
74102;SDS011;62853;46.166;3.640;2023-07-13T04:37:25;16.50;;;5.88;;
74102;SDS011;62853;46.166;3.640;2023-07-13T04:39:51;14.05;;;5.78;;
74102;SDS011;62853;46.166;3.640;2023-07-13T04:42:17;15.27;;;6.03;;
74102;SDS011;62853;46.166;3.640;2023-07-13T04:44:47;15.38;;;6.43;;
74102;SDS011;62853;46.166;3.640;2023-07-13T04:47:16;12.88;;;6.25;;
74102;SDS011;62853;46.166;3.640;2023-07-13T04:49:42;19.23;;;7.22;;
74102;SDS011;62853;46.166;3.640;2023-07-13T04:52:07;16.95;;;7.10;;
74102;SDS011;62853;46.166;3.640;2023-07-13T04:54:33;15.82;;;7.38;;
74102;SDS011;62853;46.166;3.640;2023-07-13T04:56:59;20.55;;;7.95;;
74102;SDS011;62853;46.166;3.640;2023-07-13T04:59:24;18.83;;;7.80;;
74102;SDS011;62853;46.166;3.640;2023-07-13T05:01:50;19.20;;;8.23;;
74102;SDS011;62853;46.166;3.640;2023-07-13T05:04:16;21.13;;;8.98;;
74102;SDS011;62853;46.166;3.640;2023-07-13T05:06:41;18.85;;;8.70;;
74102;SDS011;62853;46.166;3.640;2023-07-13T05:09:07;19.52;;;8.75;;
74102;SDS011;62853;46.166;3.640;2023-07-13T05:11:32;18.88;;;8.80;;
74102;SDS011;62853;46.166;3.640;2023-07-13T05:13:58;18.08;;;8.07;;
74102;SDS011;62853;46.166;3.640;2023-07-13T05:16:23;23.58;;;8.70;;
74102;SDS011;62853;46.166;3.640;2023-07-13T05:18:49;25.05;;;9.70;;
74102;SDS011;62853;46.166;3.640;2023-07-13T05:21:14;21.90;;;9.35;;
74102;SDS011;62853;46.166;3.640;2023-07-13T05:23:40;20.90;;;8.68;;
74102;SDS011;62853;46.166;3.640;2023-07-13T05:26:10;19.10;;;9.25;;
74102;SDS011;62853;46.166;3.640;2023-07-13T05:28:36;23.23;;;9.10;;
74102;SDS011;62853;46.166;3.640;2023-07-13T05:31:02;24.70;;;9.00;;
74102;SDS011;62853;46.166;3.640;2023-07-13T05:33:27;21.63;;;8.02;;
74102;SDS011;62853;46.166;3.640;2023-07-13T05:35:53;21.67;;;8.32;;
74102;SDS011;62853;46.166;3.640;2023-07-13T05:38:18;18.23;;;8.00;;
74102;SDS011;62853;46.166;3.640;2023-07-13T05:40:44;19.35;;;8.25;;
74102;SDS011;62853;46.166;3.640;2023-07-13T05:43:11;19.92;;;8.32;;
74102;SDS011;62853;46.166;3.640;2023-07-13T05:45:37;20.17;;;8.13;;
74102;SDS011;62853;46.166;3.640;2023-07-13T05:48:03;20.60;;;8.23;;
74102;SDS011;62853;46.166;3.640;2023-07-13T05:50:28;20.00;;;7.57;;
74102;SDS011;62853;46.166;3.640;2023-07-13T05:52:54;20.05;;;8.20;;
74102;SDS011;62853;46.166;3.640;2023-07-13T05:55:19;20.17;;;9.00;;
74102;SDS011;62853;46.166;3.640;2023-07-13T05:57:45;20.73;;;9.18;;
74102;SDS011;62853;46.166;3.640;2023-07-13T06:00:11;19.73;;;9.32;;
74102;SDS011;62853;46.166;3.640;2023-07-13T06:02:36;22.92;;;9.73;;
74102;SDS011;62853;46.166;3.640;2023-07-13T06:05:02;22.90;;;10.50;;
74102;SDS011;62853;46.166;3.640;2023-07-13T06:07:27;22.02;;;9.27;;
74102;SDS011;62853;46.166;3.640;2023-07-13T06:09:53;22.70;;;9.57;;
74102;SDS011;62853;46.166;3.640;2023-07-13T06:12:18;20.88;;;9.27;;
74102;SDS011;62853;46.166;3.640;2023-07-13T06:14:44;23.35;;;10.23;;
74102;SDS011;62853;46.166;3.640;2023-07-13T06:17:10;23.70;;;9.32;;
74102;SDS011;62853;46.166;3.640;2023-07-13T06:19:36;25.05;;;9.57;;
74102;SDS011;62853;46.166;3.640;2023-07-13T06:22:02;23.67;;;9.93;;
74102;SDS011;62853;46.166;3.640;2023-07-13T06:24:27;19.95;;;10.38;;
74102;SDS011;62853;46.166;3.640;2023-07-13T06:26:53;21.50;;;10.13;;
74102;SDS011;62853;46.166;3.640;2023-07-13T06:29:18;20.33;;;10.20;;
74102;SDS011;62853;46.166;3.640;2023-07-13T06:31:44;23.75;;;9.82;;
74102;SDS011;62853;46.166;3.640;2023-07-13T06:34:09;20.60;;;10.30;;
74102;SDS011;62853;46.166;3.640;2023-07-13T06:36:35;20.77;;;9.85;;
74102;SDS011;62853;46.166;3.640;2023-07-13T06:39:01;25.35;;;10.05;;
74102;SDS011;62853;46.166;3.640;2023-07-13T06:41:27;20.83;;;10.05;;
74102;SDS011;62853;46.166;3.640;2023-07-13T06:43:53;21.23;;;9.25;;
74102;SDS011;62853;46.166;3.640;2023-07-13T06:46:20;19.70;;;9.13;;
74102;SDS011;62853;46.166;3.640;2023-07-13T06:48:48;22.42;;;9.73;;
74102;SDS011;62853;46.166;3.640;2023-07-13T06:51:14;25.48;;;8.90;;
74102;SDS011;62853;46.166;3.640;2023-07-13T06:53:40;18.20;;;8.90;;
74102;SDS011;62853;46.166;3.640;2023-07-13T06:56:05;20.00;;;9.77;;
74102;SDS011;62853;46.166;3.640;2023-07-13T06:58:31;16.95;;;8.70;;
74102;SDS011;62853;46.166;3.640;2023-07-13T07:00:58;22.38;;;8.75;;
74102;SDS011;62853;46.166;3.640;2023-07-13T07:03:24;18.85;;;8.60;;
74102;SDS011;62853;46.166;3.640;2023-07-13T07:05:49;16.60;;;8.38;;
74102;SDS011;62853;46.166;3.640;2023-07-13T07:08:14;18.15;;;8.07;;
74102;SDS011;62853;46.166;3.640;2023-07-13T07:10:40;20.52;;;7.95;;
74102;SDS011;62853;46.166;3.640;2023-07-13T07:13:06;19.70;;;8.60;;
74102;SDS011;62853;46.166;3.640;2023-07-13T07:15:32;18.00;;;9.07;;
74102;SDS011;62853;46.166;3.640;2023-07-13T07:17:59;18.73;;;8.35;;
74102;SDS011;62853;46.166;3.640;2023-07-13T07:20:25;18.75;;;8.55;;
74102;SDS011;62853;46.166;3.640;2023-07-13T07:22:51;14.35;;;7.82;;
74102;SDS011;62853;46.166;3.640;2023-07-13T07:25:16;18.90;;;8.35;;
74102;SDS011;62853;46.166;3.640;2023-07-13T07:27:42;18.15;;;7.45;;
74102;SDS011;62853;46.166;3.640;2023-07-13T07:30:07;12.57;;;7.45;;
74102;SDS011;62853;46.166;3.640;2023-07-13T07:32:33;18.20;;;8.20;;
74102;SDS011;62853;46.166;3.640;2023-07-13T07:34:58;15.77;;;7.00;;
74102;SDS011;62853;46.166;3.640;2023-07-13T07:37:24;18.05;;;7.45;;
74102;SDS011;62853;46.166;3.640;2023-07-13T07:39:49;16.92;;;7.47;;
74102;SDS011;62853;46.166;3.640;2023-07-13T07:42:15;15.23;;;6.80;;
74102;SDS011;62853;46.166;3.640;2023-07-13T07:44:40;13.82;;;6.50;;
74102;SDS011;62853;46.166;3.640;2023-07-13T07:47:06;14.23;;;5.78;;
74102;SDS011;62853;46.166;3.640;2023-07-13T07:49:32;13.77;;;5.57;;
74102;SDS011;62853;46.166;3.640;2023-07-13T07:51:57;11.15;;;4.55;;
74102;SDS011;62853;46.166;3.640;2023-07-13T07:54:23;14.10;;;5.07;;
74102;SDS011;62853;46.166;3.640;2023-07-13T07:56:48;10.90;;;4.78;;
74102;SDS011;62853;46.166;3.640;2023-07-13T07:59:14;9.38;;;4.20;;
74102;SDS011;62853;46.166;3.640;2023-07-13T08:01:39;10.55;;;4.38;;
74102;SDS011;62853;46.166;3.640;2023-07-13T08:04:05;8.63;;;3.67;;
74102;SDS011;62853;46.166;3.640;2023-07-13T08:06:33;11.10;;;4.75;;
74102;SDS011;62853;46.166;3.640;2023-07-13T08:08:58;12.52;;;4.60;;
74102;SDS011;62853;46.166;3.640;2023-07-13T08:11:24;11.77;;;4.63;;
74102;SDS011;62853;46.166;3.640;2023-07-13T08:13:50;12.77;;;4.38;;
74102;SDS011;62853;46.166;3.640;2023-07-13T08:16:15;11.80;;;3.90;;
74102;SDS011;62853;46.166;3.640;2023-07-13T08:18:41;11.27;;;4.32;;
74102;SDS011;62853;46.166;3.640;2023-07-13T08:21:07;10.18;;;3.60;;
74102;SDS011;62853;46.166;3.640;2023-07-13T08:23:34;17.60;;;4.47;;
74102;SDS011;62853;46.166;3.640;2023-07-13T08:26:00;12.77;;;4.35;;
74102;SDS011;62853;46.166;3.640;2023-07-13T08:28:29;11.05;;;3.65;;
74102;SDS011;62853;46.166;3.640;2023-07-13T08:30:59;10.27;;;3.78;;
74102;SDS011;62853;46.166;3.640;2023-07-13T08:33:26;12.93;;;3.63;;
74102;SDS011;62853;46.166;3.640;2023-07-13T08:35:51;9.98;;;3.67;;
74102;SDS011;62853;46.166;3.640;2023-07-13T08:38:17;8.30;;;3.60;;
74102;SDS011;62853;46.166;3.640;2023-07-13T08:40:43;10.25;;;3.40;;
74102;SDS011;62853;46.166;3.640;2023-07-13T08:43:13;11.48;;;3.30;;
74102;SDS011;62853;46.166;3.640;2023-07-13T08:45:55;11.38;;;3.78;;
74102;SDS011;62853;46.166;3.640;2023-07-13T08:48:26;10.80;;;3.83;;
74102;SDS011;62853;46.166;3.640;2023-07-13T08:51:00;10.98;;;3.70;;
74102;SDS011;62853;46.166;3.640;2023-07-13T08:53:34;11.25;;;3.45;;
74102;SDS011;62853;46.166;3.640;2023-07-13T08:56:03;13.55;;;3.35;;
74102;SDS011;62853;46.166;3.640;2023-07-13T08:58:36;12.85;;;3.63;;
74102;SDS011;62853;46.166;3.640;2023-07-13T09:04:09;12.13;;;4.07;;
74102;SDS011;62853;46.166;3.640;2023-07-13T09:12:14;11.52;;;3.33;;
74102;SDS011;62853;46.166;3.640;2023-07-13T09:14:51;8.75;;;3.40;;
74102;SDS011;62853;46.166;3.640;2023-07-13T09:17:30;10.95;;;3.45;;
74102;SDS011;62853;46.166;3.640;2023-07-13T09:20:09;11.02;;;3.47;;
74102;SDS011;62853;46.166;3.640;2023-07-13T09:22:48;10.05;;;3.28;;
74102;SDS011;62853;46.166;3.640;2023-07-13T09:27:56;8.05;;;2.92;;
74102;SDS011;62853;46.166;3.640;2023-07-13T09:33:24;7.55;;;2.80;;
74102;SDS011;62853;46.166;3.640;2023-07-13T09:35:50;9.40;;;2.88;;
74102;SDS011;62853;46.166;3.640;2023-07-13T09:38:16;6.72;;;2.97;;
74102;SDS011;62853;46.166;3.640;2023-07-13T09:43:24;7.93;;;3.05;;
74102;SDS011;62853;46.166;3.640;2023-07-13T09:45:50;8.63;;;2.80;;
74102;SDS011;62853;46.166;3.640;2023-07-13T09:48:16;11.02;;;3.67;;
74102;SDS011;62853;46.166;3.640;2023-07-13T09:50:43;10.23;;;3.17;;
74102;SDS011;62853;46.166;3.640;2023-07-13T09:53:16;9.68;;;3.20;;
74102;SDS011;62853;46.166;3.640;2023-07-13T09:55:44;7.85;;;3.20;;
74102;SDS011;62853;46.166;3.640;2023-07-13T09:58:14;9.32;;;2.63;;
74102;SDS011;62853;46.166;3.640;2023-07-13T10:00:56;13.13;;;3.05;;
74102;SDS011;62853;46.166;3.640;2023-07-13T10:03:25;11.13;;;4.00;;
74102;SDS011;62853;46.166;3.640;2023-07-13T10:05:53;9.98;;;3.28;;
74102;SDS011;62853;46.166;3.640;2023-07-13T10:11:12;9.00;;;3.40;;
74102;SDS011;62853;46.166;3.640;2023-07-13T10:16:22;8.50;;;3.05;;
74102;SDS011;62853;46.166;3.640;2023-07-13T10:18:50;10.80;;;2.92;;
74102;SDS011;62853;46.166;3.640;2023-07-13T10:21:21;9.38;;;3.40;;
74102;SDS011;62853;46.166;3.640;2023-07-13T10:23:50;8.60;;;2.70;;
74102;SDS011;62853;46.166;3.640;2023-07-13T10:26:25;8.32;;;2.80;;
74102;SDS011;62853;46.166;3.640;2023-07-13T10:28:56;7.10;;;2.67;;
74102;SDS011;62853;46.166;3.640;2023-07-13T10:31:24;5.35;;;2.30;;
74102;SDS011;62853;46.166;3.640;2023-07-13T10:33:50;6.30;;;2.55;;
74102;SDS011;62853;46.166;3.640;2023-07-13T10:36:17;7.05;;;2.70;;
74102;SDS011;62853;46.166;3.640;2023-07-13T10:38:52;8.35;;;2.95;;
74102;SDS011;62853;46.166;3.640;2023-07-13T10:41:21;7.72;;;2.63;;
74102;SDS011;62853;46.166;3.640;2023-07-13T10:43:51;6.15;;;2.50;;
74102;SDS011;62853;46.166;3.640;2023-07-13T10:46:20;8.88;;;2.70;;
74102;SDS011;62853;46.166;3.640;2023-07-13T10:48:51;5.65;;;2.25;;
74102;SDS011;62853;46.166;3.640;2023-07-13T10:51:19;8.30;;;2.80;;
74102;SDS011;62853;46.166;3.640;2023-07-13T10:53:46;7.72;;;2.88;;
74102;SDS011;62853;46.166;3.640;2023-07-13T10:56:19;11.95;;;2.67;;
74102;SDS011;62853;46.166;3.640;2023-07-13T10:59:13;9.05;;;2.85;;
74102;SDS011;62853;46.166;3.640;2023-07-13T11:01:53;6.10;;;2.60;;
74102;SDS011;62853;46.166;3.640;2023-07-13T11:04:22;6.57;;;2.53;;
74102;SDS011;62853;46.166;3.640;2023-07-13T11:06:50;7.18;;;2.33;;
74102;SDS011;62853;46.166;3.640;2023-07-13T11:09:40;6.65;;;2.40;;
74102;SDS011;62853;46.166;3.640;2023-07-13T11:15:04;6.90;;;2.67;;
74102;SDS011;62853;46.166;3.640;2023-07-13T11:17:48;4.97;;;2.38;;
74102;SDS011;62853;46.166;3.640;2023-07-13T11:22:50;10.55;;;3.25;;
74102;SDS011;62853;46.166;3.640;2023-07-13T11:25:25;10.02;;;3.13;;
74102;SDS011;62853;46.166;3.640;2023-07-13T11:31:18;5.82;;;2.70;;
74102;SDS011;62853;46.166;3.640;2023-07-13T11:38:36;7.88;;;2.55;;
74102;SDS011;62853;46.166;3.640;2023-07-13T11:41:13;10.43;;;3.30;;
74102;SDS011;62853;46.166;3.640;2023-07-13T11:43:42;6.43;;;2.45;;
74102;SDS011;62853;46.166;3.640;2023-07-13T11:46:21;4.97;;;2.10;;
74102;SDS011;62853;46.166;3.640;2023-07-13T11:48:48;8.68;;;2.58;;
74102;SDS011;62853;46.166;3.640;2023-07-13T11:51:25;7.78;;;2.53;;
74102;SDS011;62853;46.166;3.640;2023-07-13T11:53:54;5.55;;;2.28;;
74102;SDS011;62853;46.166;3.640;2023-07-13T11:56:22;17.00;;;3.03;;
74102;SDS011;62853;46.166;3.640;2023-07-13T11:58:50;9.68;;;2.95;;
74102;SDS011;62853;46.166;3.640;2023-07-13T12:01:21;8.15;;;2.28;;
74102;SDS011;62853;46.166;3.640;2023-07-13T12:03:50;5.47;;;2.42;;
74102;SDS011;62853;46.166;3.640;2023-07-13T12:06:25;9.85;;;2.50;;
74102;SDS011;62853;46.166;3.640;2023-07-13T12:08:57;6.88;;;2.47;;
74102;SDS011;62853;46.166;3.640;2023-07-13T12:11:23;14.85;;;3.00;;
74102;SDS011;62853;46.166;3.640;2023-07-13T12:13:49;8.45;;;2.47;;
74102;SDS011;62853;46.166;3.640;2023-07-13T12:16:16;5.47;;;2.65;;
74102;SDS011;62853;46.166;3.640;2023-07-13T12:18:49;6.50;;;2.45;;
74102;SDS011;62853;46.166;3.640;2023-07-13T12:21:18;7.38;;;2.30;;
74102;SDS011;62853;46.166;3.640;2023-07-13T12:23:47;6.25;;;2.20;;
74102;SDS011;62853;46.166;3.640;2023-07-13T12:26:14;10.48;;;3.05;;
74102;SDS011;62853;46.166;3.640;2023-07-13T12:28:46;9.38;;;2.70;;
74102;SDS011;62853;46.166;3.640;2023-07-13T12:33:58;10.48;;;2.75;;
74102;SDS011;62853;46.166;3.640;2023-07-13T12:36:36;6.65;;;2.38;;
74102;SDS011;62853;46.166;3.640;2023-07-13T12:39:13;11.10;;;2.58;;
74102;SDS011;62853;46.166;3.640;2023-07-13T12:41:43;6.82;;;2.60;;
74102;SDS011;62853;46.166;3.640;2023-07-13T12:44:31;5.90;;;2.13;;
74102;SDS011;62853;46.166;3.640;2023-07-13T12:47:04;6.20;;;2.58;;
74102;SDS011;62853;46.166;3.640;2023-07-13T12:49:40;5.18;;;2.70;;
74102;SDS011;62853;46.166;3.640;2023-07-13T12:52:14;6.55;;;2.40;;
74102;SDS011;62853;46.166;3.640;2023-07-13T12:54:52;5.95;;;2.38;;
74102;SDS011;62853;46.166;3.640;2023-07-13T12:57:24;4.78;;;1.92;;
74102;SDS011;62853;46.166;3.640;2023-07-13T12:59:54;5.07;;;2.10;;
74102;SDS011;62853;46.166;3.640;2023-07-13T13:04:57;6.65;;;2.30;;
74102;SDS011;62853;46.166;3.640;2023-07-13T13:07:24;9.27;;;2.53;;
74102;SDS011;62853;46.166;3.640;2023-07-13T13:09:50;5.38;;;2.60;;
74102;SDS011;62853;46.166;3.640;2023-07-13T13:12:15;10.88;;;4.00;;
74102;SDS011;62853;46.166;3.640;2023-07-13T13:14:42;9.75;;;3.58;;
74102;SDS011;62853;46.166;3.640;2023-07-13T13:17:18;9.27;;;3.53;;
74102;SDS011;62853;46.166;3.640;2023-07-13T13:19:45;9.30;;;3.90;;
74102;SDS011;62853;46.166;3.640;2023-07-13T13:22:11;10.15;;;4.38;;
74102;SDS011;62853;46.166;3.640;2023-07-13T13:24:37;6.55;;;3.75;;
74102;SDS011;62853;46.166;3.640;2023-07-13T13:27:03;8.57;;;3.60;;
74102;SDS011;62853;46.166;3.640;2023-07-13T13:29:31;6.40;;;4.00;;
74102;SDS011;62853;46.166;3.640;2023-07-13T13:31:57;6.22;;;3.75;;
74102;SDS011;62853;46.166;3.640;2023-07-13T13:34:23;6.20;;;3.90;;
74102;SDS011;62853;46.166;3.640;2023-07-13T13:36:50;10.57;;;4.22;;
74102;SDS011;62853;46.166;3.640;2023-07-13T13:42:00;6.93;;;3.75;;
74102;SDS011;62853;46.166;3.640;2023-07-13T13:44:25;8.63;;;3.90;;
74102;SDS011;62853;46.166;3.640;2023-07-13T13:46:51;4.78;;;2.85;;
74102;SDS011;62853;46.166;3.640;2023-07-13T13:49:21;6.45;;;3.70;;
74102;SDS011;62853;46.166;3.640;2023-07-13T13:51:49;5.32;;;3.33;;
74102;SDS011;62853;46.166;3.640;2023-07-13T13:54:15;6.40;;;2.97;;
74102;SDS011;62853;46.166;3.640;2023-07-13T13:56:42;5.93;;;3.22;;
74102;SDS011;62853;46.166;3.640;2023-07-13T13:59:09;5.55;;;2.85;;
74102;SDS011;62853;46.166;3.640;2023-07-13T14:01:35;5.18;;;3.05;;
74102;SDS011;62853;46.166;3.640;2023-07-13T14:04:01;10.25;;;3.20;;
74102;SDS011;62853;46.166;3.640;2023-07-13T14:06:27;9.45;;;3.33;;
74102;SDS011;62853;46.166;3.640;2023-07-13T14:08:53;8.15;;;3.28;;
74102;SDS011;62853;46.166;3.640;2023-07-13T14:11:21;5.13;;;2.60;;
74102;SDS011;62853;46.166;3.640;2023-07-13T14:13:54;3.80;;;2.30;;
74102;SDS011;62853;46.166;3.640;2023-07-13T14:16:22;6.43;;;2.40;;
74102;SDS011;62853;46.166;3.640;2023-07-13T14:18:52;9.63;;;2.70;;
74102;SDS011;62853;46.166;3.640;2023-07-13T14:21:19;5.82;;;2.30;;
74102;SDS011;62853;46.166;3.640;2023-07-13T14:23:46;3.88;;;2.28;;
74102;SDS011;62853;46.166;3.640;2023-07-13T14:26:16;3.83;;;2.25;;
74102;SDS011;62853;46.166;3.640;2023-07-13T14:28:45;3.97;;;2.58;;
74102;SDS011;62853;46.166;3.640;2023-07-13T14:31:13;4.80;;;2.13;;
74102;SDS011;62853;46.166;3.640;2023-07-13T14:33:39;3.15;;;2.10;;
74102;SDS011;62853;46.166;3.640;2023-07-13T14:36:13;4.85;;;2.15;;
74102;SDS011;62853;46.166;3.640;2023-07-13T14:38:52;3.15;;;2.03;;
74102;SDS011;62853;46.166;3.640;2023-07-13T14:41:18;3.67;;;2.53;;
74102;SDS011;62853;46.166;3.640;2023-07-13T14:43:44;5.53;;;2.30;;
74102;SDS011;62853;46.166;3.640;2023-07-13T14:46:24;5.38;;;2.13;;
74102;SDS011;62853;46.166;3.640;2023-07-13T14:54:40;5.25;;;1.95;;
74102;SDS011;62853;46.166;3.640;2023-07-13T14:57:11;4.22;;;1.95;;
74102;SDS011;62853;46.166;3.640;2023-07-13T14:59:44;3.13;;;1.90;;
74102;SDS011;62853;46.166;3.640;2023-07-13T15:02:24;5.18;;;2.00;;
74102;SDS011;62853;46.166;3.640;2023-07-13T15:04:50;4.93;;;1.80;;
74102;SDS011;62853;46.166;3.640;2023-07-13T15:07:16;5.78;;;1.90;;
74102;SDS011;62853;46.166;3.640;2023-07-13T15:09:43;5.22;;;2.08;;
74102;SDS011;62853;46.166;3.640;2023-07-13T15:12:08;6.47;;;1.83;;
74102;SDS011;62853;46.166;3.640;2023-07-13T15:14:34;3.03;;;1.88;;
74102;SDS011;62853;46.166;3.640;2023-07-13T15:16:59;4.30;;;1.80;;
74102;SDS011;62853;46.166;3.640;2023-07-13T15:19:25;2.75;;;1.83;;
74102;SDS011;62853;46.166;3.640;2023-07-13T15:21:51;4.40;;;2.05;;
74102;SDS011;62853;46.166;3.640;2023-07-13T15:24:19;5.45;;;2.10;;
74102;SDS011;62853;46.166;3.640;2023-07-13T15:26:46;3.70;;;2.13;;
74102;SDS011;62853;46.166;3.640;2023-07-13T15:29:14;4.47;;;2.08;;
74102;SDS011;62853;46.166;3.640;2023-07-13T15:31:42;5.00;;;2.30;;
74102;SDS011;62853;46.166;3.640;2023-07-13T15:34:12;5.80;;;2.33;;
74102;SDS011;62853;46.166;3.640;2023-07-13T15:36:44;6.57;;;3.10;;
74102;SDS011;62853;46.166;3.640;2023-07-13T15:39:13;7.35;;;3.50;;
74102;SDS011;62853;46.166;3.640;2023-07-13T15:41:41;7.10;;;3.50;;